Time;durP1;ratioP1;P1;durP2;ratioP2;P2;SDS_P1;SDS_P2;PMS_P1;PMS_P2;Temp;Humidity;BMP_temperature;BMP_pressure;BME280_temperature;BME280_humidity;BME280_pressure;Samples;Min_cycle;Max_cycle;Signal;HPM_P1;HPM_P2
2023/01/28 00:03:51;;;;;;;3.37;2.30;;;;;;;16.86;49.08;97003.19;10371808;28;20042;-28
2023/01/28 00:08:53;;;;;;;3.13;2.22;;;;;;;16.83;49.52;96998.09;10372898;28;20291;-27
2023/01/28 00:13:54;;;;;;;4.38;2.53;;;;;;;16.89;48.68;96991.44;10366828;28;20065;-27
2023/01/28 00:18:55;;;;;;;4.28;2.45;;;;;;;16.90;48.53;96999.88;10371009;28;20061;-28
2023/01/28 00:23:56;;;;;;;2.95;2.03;;;;;;;16.90;48.85;96994.81;10371853;28;20099;-27
2023/01/28 00:28:56;;;;;;;5.32;2.13;;;;;;;16.88;48.85;96991.41;10366055;28;20072;-28
2023/01/28 00:33:56;;;;;;;4.03;1.80;;;;;;;16.88;49.12;96987.19;10371464;28;20034;-27
2023/01/28 00:38:58;;;;;;;2.25;1.80;;;;;;;16.83;48.84;96990.53;10370508;28;20773;-27
2023/01/28 00:43:58;;;;;;;3.85;1.98;;;;;;;16.83;49.43;96985.47;10371162;28;20041;-27
2023/01/28 00:48:59;;;;;;;2.37;2.00;;;;;;;16.86;48.83;96981.28;10370018;28;20041;-27
2023/01/28 00:53:59;;;;;;;4.03;1.98;;;;;;;16.82;49.38;96976.19;10369288;28;20304;-27
2023/01/28 00:59:00;;;;;;;2.00;1.80;;;;;;;16.85;49.33;96981.25;10367837;28;20030;-28
2023/01/28 01:04:04;;;;;;;3.13;2.20;;;;;;;16.86;49.33;96978.75;10361205;28;20026;-27
2023/01/28 01:09:07;;;;;;;3.80;2.40;;;;;;;16.85;49.59;96986.31;10366566;28;20125;-27
2023/01/28 01:14:09;;;;;;;4.50;2.20;;;;;;;16.79;49.50;96984.56;10364569;28;20481;-27
2023/01/28 01:19:09;;;;;;;1.88;1.70;;;;;;;16.90;48.79;96979.63;10357143;28;20042;-29
2023/01/28 01:24:09;;;;;;;3.80;2.37;;;;;;;16.90;48.75;96972.06;10365658;28;20034;-27
2023/01/28 01:29:10;;;;;;;2.60;2.00;;;;;;;16.88;49.18;96972.03;10363956;28;20045;-27
2023/01/28 01:34:10;;;;;;;2.70;1.92;;;;;;;16.75;48.80;96965.13;10364021;28;20133;-28
2023/01/28 01:39:11;;;;;;;3.00;2.00;;;;;;;16.83;49.09;96977.88;10363446;28;20036;-27
2023/01/28 01:44:49;;;;;;;4.00;2.47;;;;;;;16.86;48.90;96990.53;10358968;28;20294;-27
2023/01/28 01:49:49;;;;;;;2.72;2.20;;;;;;;16.88;49.40;96983.81;10363421;28;20116;-27
2023/01/28 01:54:53;;;;;;;3.47;1.73;;;;;;;16.85;49.12;96986.31;10365176;28;21043;-27
2023/01/28 01:59:55;;;;;;;3.28;2.35;;;;;;;16.85;49.22;96988.84;10367570;28;20061;-27
2023/01/28 02:04:56;;;;;;;3.55;2.78;;;;;;;16.82;49.42;96986.31;10362651;28;20064;-27
2023/01/28 02:09:56;;;;;;;2.63;1.77;;;;;;;16.88;49.41;96992.25;10365250;28;20518;-28
2023/01/28 02:15:03;;;;;;;3.37;2.13;;;;;;;16.84;49.44;96992.22;10366385;28;20092;-27
2023/01/28 02:20:10;;;;;;;3.63;1.90;;;;;;;16.91;48.66;96988.91;10362158;28;20125;-27
2023/01/28 02:25:19;;;;;;;2.88;2.25;;;;;;;16.90;48.51;96984.69;10360605;28;20038;-28
2023/01/28 02:30:23;;;;;;;2.20;1.98;;;;;;;16.90;48.77;96989.75;10359387;28;20064;-27
2023/01/28 02:35:36;;;;;;;4.63;2.60;;;;;;;16.89;48.92;96993.94;10364804;28;20120;-27
2023/01/28 02:41:00;;;;;;;3.05;1.85;;;;;;;16.87;49.49;96994.75;10354837;28;20029;-27
2023/01/28 02:51:57;;;;;;;;;;;;;;;16.85;48.89;96988.84;10337265;28;20050;-26
2023/01/28 02:56:58;;;;;;;2.05;1.63;;;;;;;16.82;49.06;96992.19;10358470;28;20381;-28
2023/01/28 03:02:08;;;;;;;3.53;1.95;;;;;;;16.83;48.71;97000.63;10365758;28;20034;-26
2023/01/28 03:07:12;;;;;;;6.55;2.58;;;;;;;16.87;48.79;96997.28;10367075;28;20441;-27
2023/01/28 03:39:28;;;;;;;2.83;2.15;;;;;;;16.91;48.42;97015.03;10387926;28;20121;-27
2023/01/28 03:49:51;;;;;;;2.72;1.83;;;;;;;16.86;48.67;97004.03;10356233;28;20033;-28
2023/01/28 03:54:55;;;;;;;6.00;1.90;;;;;;;16.88;48.48;97011.63;10364818;28;20502;-28
2023/01/28 03:59:58;;;;;;;2.00;1.80;;;;;;;16.85;48.74;97012.47;10363889;28;20285;-27
2023/01/28 04:04:58;;;;;;;2.38;1.83;;;;;;;16.88;48.26;97009.09;10369076;28;20101;-26
2023/01/28 04:09:59;;;;;;;2.00;1.80;;;;;;;16.87;48.73;97003.22;10369512;28;20120;-27
2023/01/28 04:15:14;;;;;;;2.33;1.80;;;;;;;16.92;49.02;97003.25;10371248;28;20153;-27
2023/01/28 04:20:16;;;;;;;3.90;1.83;;;;;;;16.88;49.53;97009.09;10368952;28;20026;-27
2023/01/28 04:25:17;;;;;;;2.85;1.63;;;;;;;16.90;48.89;97013.34;10369685;28;20378;-26
2023/01/28 04:30:18;;;;;;;2.17;1.83;;;;;;;16.90;48.36;97017.56;10370120;28;20069;-27
2023/01/28 04:35:28;;;;;;;1.90;1.65;;;;;;;16.89;48.85;97015.88;10369118;28;20037;-30
2023/01/28 04:40:38;;;;;;;2.22;1.80;;;;;;;16.87;48.58;97020.03;10368769;28;20044;-27
2023/01/28 04:45:45;;;;;;;4.07;1.88;;;;;;;16.87;48.68;97022.56;10367734;28;20030;-28
2023/01/28 04:51:07;;;;;;;3.28;1.92;;;;;;;16.88;48.32;97019.22;10369227;28;20430;-27
2023/01/28 04:56:11;;;;;;;2.78;2.10;;;;;;;16.92;48.25;97033.59;10368976;28;20038;-27
2023/01/28 05:01:12;;;;;;;2.70;2.03;;;;;;;16.89;48.24;97038.63;10368982;28;20498;-27
2023/01/28 05:06:13;;;;;;;2.03;1.70;;;;;;;16.89;48.28;97043.69;10368851;28;20601;-27
2023/01/28 05:11:16;;;;;;;3.40;1.77;;;;;;;16.89;48.52;97043.69;10359366;28;20062;-28
2023/01/28 05:16:18;;;;;;;2.20;1.60;;;;;;;16.90;48.43;97050.44;10366303;28;20029;-29
2023/01/28 05:21:19;;;;;;;1.70;1.60;;;;;;;16.93;48.91;97047.94;10366091;28;20024;-28
2023/01/28 05:26:25;;;;;;;2.50;1.58;;;;;;;16.88;49.10;97047.91;10361415;28;20029;-27
2023/01/28 05:31:25;;;;;;;4.25;1.83;;;;;;;16.93;48.42;97060.59;10367942;28;20030;-27
2023/01/28 05:36:26;;;;;;;2.97;2.00;;;;;;;16.96;48.14;97058.09;10364714;28;20037;-27
2023/01/28 05:41:28;;;;;;;3.65;1.75;;;;;;;16.89;48.62;97051.28;10366080;28;20021;-27
2023/01/28 05:46:33;;;;;;;6.03;1.98;;;;;;;16.91;48.69;97055.50;10367552;28;20116;-27
2023/01/28 05:51:44;;;;;;;2.53;1.98;;;;;;;16.87;48.65;97060.50;10366225;28;20038;-26
2023/01/28 05:56:48;;;;;;;2.42;1.90;;;;;;;16.90;47.81;97055.50;10359382;28;20028;-27
2023/01/28 06:01:50;;;;;;;3.33;2.47;;;;;;;16.91;48.00;97059.72;10368506;28;20056;-27
2023/01/28 06:06:50;;;;;;;6.72;2.88;;;;;;;16.90;45.27;97073.22;10370798;28;20032;-27
2023/01/28 06:11:52;;;;;;;5.65;1.80;;;;;;;16.89;48.73;97079.09;10379999;28;20029;-27
2023/01/28 06:16:52;;;;;;;4.43;2.22;;;;;;;16.91;49.13;97077.44;10385649;28;20029;-27
2023/01/28 06:22:00;;;;;;;2.55;1.55;;;;;;;16.89;49.15;97081.63;10386290;28;20034;-28
2023/01/28 06:27:01;;;;;;;2.97;1.60;;;;;;;17.00;48.60;97092.72;10364131;28;20037;-28
2023/01/28 06:32:01;;;;;;;5.70;1.83;;;;;;;16.98;49.66;97095.22;10384894;28;20299;-27
2023/01/28 06:37:03;;;;;;;4.28;2.00;;;;;;;17.09;48.19;97096.16;10366667;28;20030;-27
2023/01/28 06:42:03;;;;;;;6.22;2.30;;;;;;;17.04;48.42;97109.59;10361107;28;20143;-27
2023/01/28 06:47:04;;;;;;;8.60;2.15;;;;;;;17.00;47.79;97113.78;10360983;28;20038;-28
2023/01/28 06:52:05;;;;;;;3.63;1.92;;;;;;;17.04;46.72;97118.06;10366036;28;20053;-27
2023/01/28 06:57:05;;;;;;;4.35;1.80;;;;;;;17.06;47.48;97125.69;10358958;28;20052;-27
2023/01/28 07:02:06;;;;;;;5.40;1.70;;;;;;;17.17;45.61;97126.63;10365335;28;20026;-28
2023/01/28 07:07:06;;;;;;;6.30;1.90;;;;;;;17.41;45.91;97124.41;10360938;28;20041;-27
2023/01/28 07:12:07;;;;;;;9.67;2.47;;;;;;;17.54;46.67;97138.88;10364796;28;20289;-27
2023/01/28 07:17:07;;;;;;;3.35;1.88;;;;;;;17.52;45.55;97130.44;10363734;28;20100;-28
2023/01/28 07:22:07;;;;;;;4.67;1.93;;;;;;;17.55;44.96;97138.91;10364705;28;20037;-27
2023/01/28 07:27:08;;;;;;;7.13;3.17;;;;;;;17.56;45.24;97153.25;10359798;28;20292;-27
2023/01/28 07:32:08;;;;;;;12.47;3.67;;;;;;;17.66;44.66;97149.16;10366159;28;20026;-27
2023/01/28 07:37:08;;;;;;;5.43;2.37;;;;;;;17.88;44.78;97153.56;10365460;28;20041;-27
2023/01/28 07:42:09;;;;;;;5.53;3.03;;;;;;;18.00;45.81;97152.00;10365041;28;20033;-28
2023/01/28 07:47:11;;;;;;;10.63;2.22;;;;;;;18.89;43.09;97150.97;10389687;28;20040;-28
2023/01/28 07:52:12;;;;;;;6.37;1.90;;;;;;;18.21;44.55;97141.19;10356573;28;20030;-28
2023/01/28 07:57:12;;;;;;;7.70;1.77;;;;;;;17.93;46.01;97154.47;10377964;28;20772;-28
2023/01/28 08:02:13;;;;;;;8.30;2.37;;;;;;;17.91;47.03;97156.16;10368520;28;20078;-28
2023/01/28 08:07:13;;;;;;;5.03;2.08;;;;;;;17.82;47.71;97163.66;10374713;28;20489;-28
2023/01/28 08:12:13;;;;;;;7.00;2.03;;;;;;;17.87;48.02;97167.94;10360289;28;20044;-28
2023/01/28 08:17:14;;;;;;;9.37;1.97;;;;;;;17.87;48.48;97169.59;10378189;28;20033;-27
2023/01/28 08:22:14;;;;;;;8.20;2.77;;;;;;;17.83;48.46;97178.03;10366408;28;20029;-29
2023/01/28 08:27:15;;;;;;;9.20;2.80;;;;;;;17.96;48.46;97190.81;10364112;28;20315;-27
2023/01/28 08:32:15;;;;;;;16.43;2.00;;;;;;;17.90;48.56;97190.75;10368936;28;20049;-30
2023/01/28 08:37:15;;;;;;;8.73;2.10;;;;;;;18.04;48.13;97191.72;10366366;28;20036;-28
2023/01/28 08:42:18;;;;;;;12.37;2.43;;;;;;;18.09;48.71;97197.66;10352442;28;20292;-27
2023/01/28 08:47:19;;;;;;;16.08;2.65;;;;;;;18.06;49.17;97194.25;10362867;28;20487;-28
2023/01/28 08:52:19;;;;;;;7.90;2.30;;;;;;;17.97;49.12;97191.66;10353690;28;20341;-28
2023/01/28 08:57:19;;;;;;;8.20;2.20;;;;;;;17.94;49.41;97191.63;10379896;28;20026;-28
2023/01/28 09:02:20;;;;;;;8.17;2.87;;;;;;;17.87;49.52;97189.88;10374930;28;20033;-27
2023/01/28 09:07:20;;;;;;;16.63;2.10;;;;;;;17.94;49.97;97201.75;10387238;28;20033;-28
2023/01/28 09:12:21;;;;;;;7.13;1.93;;;;;;;17.95;49.66;97198.38;10366562;28;20037;-27
2023/01/28 09:17:21;;;;;;;7.13;2.35;;;;;;;17.96;49.68;97216.16;10369514;28;20045;-27
2023/01/28 09:22:22;;;;;;;5.75;1.58;;;;;;;17.98;50.21;97211.09;10376254;28;20034;-25
2023/01/28 09:27:22;;;;;;;4.25;1.65;;;;;;;17.86;47.16;97213.50;10351587;28;20034;-28
2023/01/28 09:32:23;;;;;;;6.17;1.80;;;;;;;17.90;49.38;97221.13;10364603;28;20040;-28
2023/01/28 09:37:24;;;;;;;10.13;1.80;;;;;;;17.85;48.53;97221.94;10373126;28;20037;-26
2023/01/28 09:42:36;;;;;;;8.70;2.57;;;;;;;18.10;49.13;97223.88;10365177;28;20030;-26
2023/01/28 09:47:42;;;;;;;5.65;1.90;;;;;;;18.15;50.24;97222.25;10377015;28;20280;-25
2023/01/28 09:52:43;;;;;;;7.25;1.50;;;;;;;18.07;51.08;97221.31;10378218;28;20073;-26
2023/01/28 09:57:50;;;;;;;11.98;1.90;;;;;;;18.03;50.95;97222.97;10378222;28;20417;-28
2023/01/28 10:03:00;;;;;;;7.47;2.50;;;;;;;17.78;45.98;97235.38;10377300;28;20042;-27
2023/01/28 10:08:13;;;;;;;8.65;2.08;;;;;;;17.98;51.04;97233.91;10366784;28;20521;-29
2023/01/28 10:13:16;;;;;;;9.38;1.98;;;;;;;18.04;51.67;97239.00;10366812;28;20038;-27
2023/01/28 10:18:28;;;;;;;10.00;2.08;;;;;;;18.07;52.02;97234.81;10366448;28;20104;-31
2023/01/28 10:24:01;;;;;;;7.97;2.33;;;;;;;18.05;50.51;97226.38;10361754;28;20092;-28
2023/01/28 10:29:17;;;;;;;5.38;2.00;;;;;;;18.18;51.14;97220.56;10325543;28;20490;-27
2023/01/28 10:34:19;;;;;;;8.03;1.87;;;;;;;18.19;50.86;97224.81;10364467;28;20029;-28
2023/01/28 10:39:23;;;;;;;11.77;3.25;;;;;;;18.24;51.28;97209.66;10365918;28;20033;-25
2023/01/28 10:44:39;;;;;;;9.35;2.10;;;;;;;18.28;50.91;97219.84;10366884;28;20065;-29
2023/01/28 10:49:48;;;;;;;7.00;2.47;;;;;;;18.25;51.15;97218.94;10365813;28;20037;-27
2023/01/28 10:54:58;;;;;;;5.60;1.83;;;;;;;18.24;50.84;97209.66;10364193;28;20116;-28
2023/01/28 11:00:23;;;;;;;5.30;1.70;;;;;;;18.27;50.95;97207.13;10369494;28;20064;-28
2023/01/28 11:05:30;;;;;;;7.07;1.70;;;;;;;18.31;50.82;97178.47;10368761;28;20035;-27
2023/01/28 11:10:34;;;;;;;4.15;1.50;;;;;;;18.29;50.94;97191.16;10363850;28;20459;-28
2023/01/28 11:15:34;;;;;;;10.20;1.90;;;;;;;18.23;50.90;97195.25;10376092;28;20029;-28
2023/01/28 11:20:40;;;;;;;4.93;1.93;;;;;;;18.28;51.31;97191.09;10375765;28;20033;-27
2023/01/28 11:25:40;;;;;;;10.15;2.53;;;;;;;18.30;50.92;97187.78;10364608;28;20323;-30
2023/01/28 11:30:41;;;;;;;5.93;1.90;;;;;;;18.34;51.27;97194.53;10370355;28;20026;-28
2023/01/28 11:35:41;;;;;;;9.50;2.03;;;;;;;18.34;52.04;97197.06;10372903;28;20788;-28
2023/01/28 11:40:50;;;;;;;6.20;1.80;;;;;;;18.38;51.75;97188.69;10380466;28;20034;-28
2023/01/28 11:45:56;;;;;;;7.30;1.60;;;;;;;18.46;51.07;97193.78;10374043;28;20108;-27
2023/01/28 11:51:18;;;;;;;17.33;2.35;;;;;;;18.51;51.29;97187.91;10367887;28;20137;-28
2023/01/28 11:56:38;;;;;;;7.68;2.10;;;;;;;18.49;51.71;97183.69;10371826;28;20050;-28
2023/01/28 12:02:09;;;;;;;3.35;1.52;;;;;;;18.50;51.35;97185.38;10373055;28;20120;-28
2023/01/28 12:07:33;;;;;;;12.20;1.70;;;;;;;18.50;51.36;97180.31;10360829;28;20037;-28
2023/01/28 12:12:54;;;;;;;7.45;1.77;;;;;;;18.50;51.38;97185.38;10371026;28;20038;-27
2023/01/28 12:18:15;;;;;;;7.05;2.15;;;;;;;18.54;51.78;97180.34;10364891;28;20030;-28
2023/01/28 12:23:29;;;;;;;7.95;2.03;;;;;;;18.47;52.16;97186.22;10363546;28;20029;-28
2023/01/28 12:28:47;;;;;;;5.65;2.03;;;;;;;18.36;51.63;97186.97;10372034;28;20130;-27
2023/01/28 12:34:04;;;;;;;7.93;2.22;;;;;;;18.37;50.36;97178.50;10362444;28;20030;-28
2023/01/28 12:39:20;;;;;;;7.60;2.05;;;;;;;18.25;49.55;97188.53;10370275;28;20029;-28
2023/01/28 12:44:31;;;;;;;3.33;1.77;;;;;;;18.46;50.30;97191.25;10370879;28;20034;-27
2023/01/28 12:49:41;;;;;;;8.63;1.45;;;;;;;18.55;50.51;97183.72;10364976;28;20676;-27
2023/01/28 12:55:05;;;;;;;9.25;1.70;;;;;;;18.52;49.54;97193.84;10368414;28;20162;-28
2023/01/28 13:00:24;;;;;;;3.20;1.92;;;;;;;18.48;50.00;97192.97;10366575;28;20037;-28
2023/01/28 13:05:33;;;;;;;7.28;2.22;;;;;;;18.50;50.39;97200.59;10365488;28;20041;-29
2023/01/28 13:10:41;;;;;;;10.15;2.10;;;;;;;18.50;50.69;97206.50;10369349;28;20030;-29
2023/01/28 13:15:43;;;;;;;11.55;2.00;;;;;;;18.55;50.95;97198.94;10380529;28;20124;-29
2023/01/28 13:20:50;;;;;;;10.48;1.90;;;;;;;18.55;50.80;97204.00;10355732;28;20548;-28
2023/01/28 13:25:54;;;;;;;9.32;1.33;;;;;;;18.50;51.14;97191.28;10365675;28;20088;-30
2023/01/28 13:31:16;;;;;;;6.45;1.90;;;;;;;18.53;50.68;97210.75;10364525;28;20030;-29
2023/01/28 13:36:16;;;;;;;5.30;1.50;;;;;;;18.54;50.49;97203.16;10358567;28;20121;-30
2023/01/28 13:41:17;;;;;;;8.10;1.87;;;;;;;18.63;50.71;97215.06;10366476;28;20117;-29
2023/01/28 13:46:28;;;;;;;7.00;1.93;;;;;;;18.71;50.97;97208.34;10377272;28;20041;-29
2023/01/28 13:51:32;;;;;;;7.13;2.03;;;;;;;18.69;51.02;97215.09;10366969;28;20557;-30
2023/01/28 13:56:38;;;;;;;11.80;1.80;;;;;;;18.71;50.88;97216.81;10365177;28;20026;-28
2023/01/28 14:02:15;;;;;;;12.45;2.63;;;;;;;18.67;51.67;97224.41;10365332;28;20080;-28
2023/01/28 14:07:37;;;;;;;11.00;2.42;;;;;;;18.64;51.57;97230.28;10363799;28;20131;-29
2023/01/28 14:13:06;;;;;;;6.70;2.58;;;;;;;18.62;51.99;97238.72;10355402;28;20038;-28
2023/01/28 14:18:30;;;;;;;11.93;2.38;;;;;;;18.50;49.99;97231.03;10360381;28;20041;-29
2023/01/28 14:23:31;;;;;;;20.58;3.78;;;;;;;17.88;42.59;97237.16;10361522;28;20417;-28
2023/01/28 14:28:45;;;;;;;23.08;3.63;;;;;;;18.39;48.28;97243.59;10363416;28;20060;-29
2023/01/28 14:33:45;;;;;;;28.73;3.83;;;;;;;18.54;49.79;97253.88;10363733;28;20037;-29
2023/01/28 14:38:46;;;;;;;27.10;3.50;;;;;;;18.63;50.41;97253.97;10362354;28;20275;-28
2023/01/28 14:43:47;;;;;;;11.27;2.80;;;;;;;18.75;50.45;97263.34;10367118;28;20034;-29
2023/01/28 14:49:20;;;;;;;19.42;4.18;;;;;;;18.82;50.89;97273.53;10365417;28;20100;-29
2023/01/28 14:54:42;;;;;;;13.93;3.20;;;;;;;18.81;51.03;97270.97;10358234;28;20050;-28
2023/01/28 14:59:49;;;;;;;17.40;2.95;;;;;;;18.78;51.01;97278.59;10366933;28;20540;-29
2023/01/28 15:04:51;;;;;;;18.00;3.60;;;;;;;18.79;51.51;97290.44;10362673;28;20498;-30
2023/01/28 15:10:14;;;;;;;20.80;4.75;;;;;;;18.77;51.54;97287.88;10362375;28;20045;-29
2023/01/28 15:15:35;;;;;;;18.08;5.90;;;;;;;18.73;51.35;97285.28;10365652;28;20040;-29
2023/01/28 15:20:35;;;;;;;28.05;6.82;;;;;;;18.80;51.70;97294.66;10366306;28;20030;-29
2023/01/28 15:25:36;;;;;;;21.43;6.87;;;;;;;18.81;51.73;97302.28;10354158;28;20034;-30
2023/01/28 15:30:44;;;;;;;26.90;9.80;;;;;;;18.84;51.59;97309.91;10360760;28;20042;-28
2023/01/28 15:35:49;;;;;;;29.25;10.00;;;;;;;18.82;51.20;97314.13;10364771;28;20289;-31
2023/01/28 15:40:55;;;;;;;28.75;12.15;;;;;;;18.86;51.40;97322.63;10350786;28;20157;-30
2023/01/28 15:45:57;;;;;;;31.45;13.80;;;;;;;18.87;51.31;97324.31;10361263;28;20498;-29
2023/01/28 15:51:04;;;;;;;34.88;15.30;;;;;;;18.85;51.77;97326.00;10356594;28;20038;-28
2023/01/28 15:56:08;;;;;;;47.08;23.98;;;;;;;18.88;51.24;97333.63;10357288;28;20457;-29
2023/01/28 16:01:08;;;;;;;55.10;27.92;;;;;;;18.89;51.31;97342.94;10363794;28;20642;-29
2023/01/28 16:06:21;;;;;;;65.57;33.30;;;;;;;18.86;51.09;97348.84;10384455;28;20046;-31
2023/01/28 16:11:32;;;;;;;73.38;32.50;;;;;;;18.92;50.96;97358.19;10360188;28;20121;-29
2023/01/28 16:16:36;;;;;;;76.25;39.08;;;;;;;18.89;50.79;97359.03;10366200;28;20034;-29
2023/01/28 16:21:42;;;;;;;60.22;30.52;;;;;;;18.54;47.22;97360.38;10369982;28;20455;-29
2023/01/28 16:26:43;;;;;;;;;;;;;;;18.67;46.91;97366.44;10371177;28;20391;-28
2023/01/28 16:31:43;;;;;;;57.80;30.92;;;;;;;18.51;45.52;97369.66;10371576;28;19921;-28
2023/01/28 16:36:43;;;;;;;80.53;42.33;;;;;;;18.71;48.03;97374.09;10365066;28;20042;-29
2023/01/28 16:41:45;;;;;;;72.22;39.60;;;;;;;18.78;48.09;97369.91;10359958;28;20038;-28
2023/01/28 16:46:46;;;;;;;71.22;36.47;;;;;;;18.80;48.83;97373.31;10366490;28;20046;-28
2023/01/28 16:51:46;;;;;;;48.37;26.57;;;;;;;18.12;44.66;97374.25;10370637;28;20409;-29
2023/01/28 16:56:47;;;;;;;64.63;31.90;;;;;;;18.57;47.22;97374.78;10365665;28;20438;-30
2023/01/28 17:01:47;;;;;;;63.85;35.05;;;;;;;18.76;47.91;97379.19;10356826;28;20405;-29
2023/01/28 17:06:48;;;;;;;66.90;35.55;;;;;;;18.83;48.09;97378.41;10362246;28;20503;-29
2023/01/28 17:11:48;;;;;;;71.57;36.10;;;;;;;18.87;48.44;97380.13;10361630;28;20045;-28
2023/01/28 17:16:51;;;;;;;66.27;35.10;;;;;;;18.96;48.92;97376.00;10370185;28;20037;-29
2023/01/28 17:21:51;;;;;;;65.90;33.72;;;;;;;18.99;49.82;97382.81;10362565;28;20433;-28
2023/01/28 17:26:52;;;;;;;70.30;36.63;;;;;;;19.00;49.74;97389.56;10365355;28;20045;-29
2023/01/28 17:31:53;;;;;;;63.65;32.78;;;;;;;19.04;49.47;97383.66;10368594;28;20405;-31
2023/01/28 17:36:53;;;;;;;59.37;30.83;;;;;;;19.02;49.63;97376.03;10369053;28;20053;-29
2023/01/28 17:41:54;;;;;;;54.53;28.43;;;;;;;18.95;48.78;97389.53;10365769;28;20172;-29
2023/01/28 17:46:55;;;;;;;53.70;29.17;;;;;;;18.90;49.11;97391.16;10367881;28;20285;-30
2023/01/28 17:51:55;;;;;;;50.77;28.43;;;;;;;18.95;49.19;97391.22;10368710;28;20034;-26
2023/01/28 17:56:57;;;;;;;49.70;27.10;;;;;;;18.93;49.23;97406.41;10363984;28;20184;-27
2023/01/28 18:01:59;;;;;;;55.45;27.00;;;;;;;18.91;49.42;97417.41;10367995;28;20398;-28
2023/01/28 18:07:00;;;;;;;50.08;27.15;;;;;;;18.89;49.86;97426.66;10368001;28;20044;-28
2023/01/28 18:12:00;;;;;;;48.53;26.53;;;;;;;18.88;49.58;97420.75;10363552;28;20394;-28
2023/01/28 18:17:03;;;;;;;52.43;24.60;;;;;;;18.89;49.47;97425.00;10368013;28;20033;-28
2023/01/28 18:22:03;;;;;;;48.75;23.55;;;;;;;18.90;49.42;97420.75;10366642;28;20040;-28
2023/01/28 18:27:03;;;;;;;41.70;24.08;;;;;;;18.93;49.96;97426.69;10366327;28;20040;-30
2023/01/28 18:32:05;;;;;;;45.37;23.53;;;;;;;18.92;50.04;97426.72;10365830;28;20045;-28
2023/01/28 18:37:07;;;;;;;46.33;23.58;;;;;;;19.00;50.27;97436.09;10382503;28;20056;-28
2023/01/28 18:42:07;;;;;;;45.03;22.50;;;;;;;18.92;51.72;97429.25;10357542;28;20478;-28
2023/01/28 18:47:08;;;;;;;47.63;21.17;;;;;;;18.95;51.38;97429.25;10364769;28;20074;-29
2023/01/28 18:52:09;;;;;;;41.22;17.88;;;;;;;18.94;50.66;97432.66;10360232;28;20030;-28
2023/01/28 18:57:09;;;;;;;39.28;19.58;;;;;;;18.85;52.24;97433.38;10359152;28;20046;-28
2023/01/28 19:02:12;;;;;;;46.77;19.53;;;;;;;18.89;52.05;97440.22;10358152;28;20022;-28
2023/01/28 19:07:13;;;;;;;44.58;18.45;;;;;;;18.74;52.82;97440.06;10366770;28;20045;-27
2023/01/28 19:12:13;;;;;;;38.47;19.07;;;;;;;18.88;51.52;97433.44;10356705;28;20042;-29
2023/01/28 19:17:14;;;;;;;37.07;17.53;;;;;;;18.76;53.39;97438.38;10366536;28;20288;-27
2023/01/28 19:22:14;;;;;;;37.58;17.67;;;;;;;18.70;53.32;97427.31;10360027;28;20296;-29
2023/01/28 19:27:14;;;;;;;34.37;18.50;;;;;;;18.71;53.01;97426.47;10361239;28;20781;-27
2023/01/28 19:32:15;;;;;;;37.67;17.33;;;;;;;18.70;52.90;97428.19;10365192;28;20289;-28
2023/01/28 19:37:16;;;;;;;38.47;18.93;;;;;;;18.74;52.68;97424.00;10374239;28;20037;-28
2023/01/28 19:42:16;;;;;;;35.50;18.38;;;;;;;18.71;53.48;97423.94;10359658;28;20063;-28
2023/01/28 19:47:17;;;;;;;44.33;17.45;;;;;;;18.90;52.31;97430.91;10369086;28;20044;-29
2023/01/28 19:52:17;;;;;;;48.63;18.70;;;;;;;18.96;54.04;97419.13;10369195;28;20042;-28
2023/01/28 19:57:17;;;;;;;47.13;19.63;;;;;;;19.10;53.43;97439.56;10374107;28;20038;-28
2023/01/28 20:02:18;;;;;;;40.77;18.37;;;;;;;19.17;53.13;97441.31;10371971;28;20049;-28
2023/01/28 20:07:18;;;;;;;42.23;16.93;;;;;;;19.22;54.50;97449.84;10372909;28;20652;-29
2023/01/28 20:12:18;;;;;;;40.37;17.60;;;;;;;19.23;53.94;97447.34;10367077;28;20456;-28
2023/01/28 20:17:20;;;;;;;32.67;15.40;;;;;;;19.24;54.40;97453.28;10372994;28;20525;-28
2023/01/28 20:22:20;;;;;;;31.13;16.65;;;;;;;19.29;53.77;97454.13;10369791;28;20029;-28
2023/01/28 20:27:25;;;;;;;29.55;15.60;;;;;;;19.32;53.35;97442.31;10367012;28;20041;-27
2023/01/28 20:32:25;;;;;;;36.60;16.55;;;;;;;19.33;53.16;97448.28;10370948;28;20041;-29
2023/01/28 20:37:25;;;;;;;47.05;14.05;;;;;;;19.35;53.25;97462.66;10371877;28;20036;-29
2023/01/28 20:42:26;;;;;;;37.57;14.13;;;;;;;19.37;53.17;97460.13;10367929;28;20088;-32
2023/01/28 20:47:29;;;;;;;37.10;12.27;;;;;;;19.34;52.73;97458.41;10369838;28;20025;-29
2023/01/28 20:52:29;;;;;;;32.83;12.98;;;;;;;19.32;52.21;97461.78;10371489;28;20030;-28
2023/01/28 20:57:30;;;;;;;29.45;12.82;;;;;;;19.33;51.93;97464.34;10365288;28;20046;-29
2023/01/28 21:02:31;;;;;;;29.38;12.48;;;;;;;19.36;51.68;97469.47;10370614;28;20034;-28
2023/01/28 21:07:31;;;;;;;27.17;11.68;;;;;;;19.34;51.24;97475.34;10372664;28;20033;-28
2023/01/28 21:12:32;;;;;;;23.67;11.83;;;;;;;19.37;51.91;97466.09;10360954;28;20044;-28
2023/01/28 21:17:32;;;;;;;26.83;12.13;;;;;;;19.42;51.78;97479.66;10363794;28;20057;-28
2023/01/28 21:22:33;;;;;;;24.40;10.50;;;;;;;19.42;51.90;97473.72;10370166;28;20265;-29
2023/01/28 21:27:36;;;;;;;26.60;12.70;;;;;;;19.40;52.00;97473.72;10364018;28;20315;-29
2023/01/28 21:32:36;;;;;;;21.45;10.63;;;;;;;19.38;51.32;97472.00;10369719;28;20026;-27
2023/01/28 21:37:37;;;;;;;23.13;10.23;;;;;;;19.38;51.09;97477.06;10360640;28;20040;-28
2023/01/28 21:42:40;;;;;;;25.75;10.93;;;;;;;19.38;51.28;97482.16;10376155;28;20114;-29
2023/01/28 21:47:40;;;;;;;20.70;9.70;;;;;;;19.36;50.49;97489.78;10367479;28;20394;-29
2023/01/28 21:52:41;;;;;;;20.30;9.20;;;;;;;19.36;50.58;97488.91;10367405;28;20042;-28
2023/01/28 21:57:41;;;;;;;20.17;9.17;;;;;;;19.35;50.55;97477.06;10366799;28;20038;-28
2023/01/28 22:02:41;;;;;;;25.37;10.20;;;;;;;19.40;51.62;97471.19;10368821;28;20442;-29
2023/01/28 22:07:42;;;;;;;20.30;9.77;;;;;;;19.40;51.14;97473.72;10368648;28;20417;-28
2023/01/28 22:12:42;;;;;;;25.47;10.10;;;;;;;19.40;50.43;97472.84;10362109;28;20045;-29
2023/01/28 22:17:43;;;;;;;23.60;10.10;;;;;;;19.43;50.56;97488.97;10367584;28;20038;-29
2023/01/28 22:22:43;;;;;;;18.30;8.13;;;;;;;19.41;50.35;97497.44;10364569;28;20284;-28
2023/01/28 22:27:43;;;;;;;22.83;9.60;;;;;;;19.43;51.03;97480.50;10352309;28;20054;-28
2023/01/28 22:32:44;;;;;;;28.87;10.37;;;;;;;19.42;51.18;97474.56;10360685;28;20049;-28
2023/01/28 22:37:44;;;;;;;18.67;9.37;;;;;;;19.43;51.18;97477.97;10367142;28;20042;-29
2023/01/28 22:42:44;;;;;;;19.83;10.23;;;;;;;19.43;51.09;97480.50;10366092;28;20033;-28
2023/01/28 22:47:45;;;;;;;15.93;8.57;;;;;;;19.46;51.10;97480.53;10373208;28;20302;-29
2023/01/28 22:52:46;;;;;;;19.55;8.38;;;;;;;19.47;51.37;97482.22;10368611;28;20038;-29
2023/01/28 22:57:46;;;;;;;18.60;8.73;;;;;;;19.48;51.53;97483.91;10360774;28;20037;-28
2023/01/28 23:02:46;;;;;;;17.23;8.40;;;;;;;19.48;51.39;97484.78;10367716;28;20395;-29
2023/01/28 23:07:47;;;;;;;22.47;8.87;;;;;;;19.53;51.43;97487.38;10369462;28;20037;-30
2023/01/28 23:12:52;;;;;;;14.23;8.23;;;;;;;19.51;50.99;97477.19;10374223;28;20077;-29
2023/01/28 23:28:35;;;;;;;16.92;8.27;;;;;;;19.51;51.22;97473.81;10363676;28;20044;-29
2023/01/28 23:33:37;;;;;;;16.97;8.20;;;;;;;19.51;51.08;97474.63;10371227;28;20064;-30
2023/01/28 23:38:38;;;;;;;14.73;9.10;;;;;;;19.29;49.67;97474.47;10372772;28;20077;-29
2023/01/28 23:43:38;;;;;;;12.97;8.10;;;;;;;19.09;51.36;97479.31;10371867;28;20490;-29
2023/01/28 23:48:38;;;;;;;15.67;8.90;;;;;;;19.10;52.48;97480.19;10369288;28;20030;-29
2023/01/28 23:53:39;;;;;;;18.85;7.72;;;;;;;19.07;52.46;97485.19;10371369;28;20048;-29
2023/01/28 23:58:39;;;;;;;12.60;6.20;;;;;;;19.13;50.12;97482.72;10368394;28;20041;-30
